sensor_id;sensor_type;location;lat;lon;timestamp;temperature;humidity
15262;DHT22;7733;51.554;13.590;2023-02-12T00:02:17;6.50;99.90
15262;DHT22;7733;51.554;13.590;2023-02-12T00:04:43;6.50;99.90
15262;DHT22;7733;51.554;13.590;2023-02-12T00:07:09;6.50;99.90
15262;DHT22;7733;51.554;13.590;2023-02-12T00:09:36;6.50;99.90
15262;DHT22;7733;51.554;13.590;2023-02-12T00:12:02;6.50;99.90
15262;DHT22;7733;51.554;13.590;2023-02-12T00:14:28;6.50;99.90
15262;DHT22;7733;51.554;13.590;2023-02-12T00:16:53;6.50;99.90
15262;DHT22;7733;51.554;13.590;2023-02-12T00:19:19;6.50;99.90
15262;DHT22;7733;51.554;13.590;2023-02-12T00:21:45;6.40;99.90
15262;DHT22;7733;51.554;13.590;2023-02-12T00:24:11;6.40;99.90
15262;DHT22;7733;51.554;13.590;2023-02-12T00:26:37;6.40;99.90
15262;DHT22;7733;51.554;13.590;2023-02-12T00:29:03;6.40;99.90
15262;DHT22;7733;51.554;13.590;2023-02-12T00:31:30;6.40;99.90
15262;DHT22;7733;51.554;13.590;2023-02-12T00:33:57;6.40;99.90
15262;DHT22;7733;51.554;13.590;2023-02-12T00:36:26;6.40;99.90
15262;DHT22;7733;51.554;13.590;2023-02-12T00:38:55;6.40;99.90
15262;DHT22;7733;51.554;13.590;2023-02-12T00:41:22;6.40;99.90
15262;DHT22;7733;51.554;13.590;2023-02-12T00:43:48;6.40;99.90
15262;DHT22;7733;51.554;13.590;2023-02-12T00:46:14;6.40;99.90
15262;DHT22;7733;51.554;13.590;2023-02-12T00:48:40;6.40;99.90
15262;DHT22;7733;51.554;13.590;2023-02-12T00:51:06;6.40;99.90
15262;DHT22;7733;51.554;13.590;2023-02-12T00:53:33;6.40;99.90
15262;DHT22;7733;51.554;13.590;2023-02-12T00:55:59;6.40;99.90
15262;DHT22;7733;51.554;13.590;2023-02-12T00:58:25;6.40;99.90
15262;DHT22;7733;51.554;13.590;2023-02-12T01:00:52;6.40;99.90
15262;DHT22;7733;51.554;13.590;2023-02-12T01:03:19;6.40;99.90
15262;DHT22;7733;51.554;13.590;2023-02-12T01:05:45;6.30;99.90
15262;DHT22;7733;51.554;13.590;2023-02-12T01:08:13;6.40;99.90
15262;DHT22;7733;51.554;13.590;2023-02-12T01:10:40;6.30;99.90
15262;DHT22;7733;51.554;13.590;2023-02-12T01:13:06;6.30;99.90
15262;DHT22;7733;51.554;13.590;2023-02-12T01:15:32;6.30;99.90
15262;DHT22;7733;51.554;13.590;2023-02-12T01:17:58;6.30;99.90
15262;DHT22;7733;51.554;13.590;2023-02-12T01:20:24;6.30;99.90
15262;DHT22;7733;51.554;13.590;2023-02-12T01:22:50;6.30;99.90
15262;DHT22;7733;51.554;13.590;2023-02-12T01:25:17;6.30;99.90
15262;DHT22;7733;51.554;13.590;2023-02-12T01:27:43;6.40;99.90
15262;DHT22;7733;51.554;13.590;2023-02-12T01:30:11;6.30;99.90
15262;DHT22;7733;51.554;13.590;2023-02-12T01:32:38;6.40;99.90
15262;DHT22;7733;51.554;13.590;2023-02-12T01:35:05;6.40;99.90
15262;DHT22;7733;51.554;13.590;2023-02-12T01:37:34;6.40;99.90
15262;DHT22;7733;51.554;13.590;2023-02-12T01:40:02;6.40;99.90
15262;DHT22;7733;51.554;13.590;2023-02-12T01:42:30;6.40;99.90
15262;DHT22;7733;51.554;13.590;2023-02-12T01:47:42;6.40;99.90
15262;DHT22;7733;51.554;13.590;2023-02-12T01:50:12;6.40;99.90
15262;DHT22;7733;51.554;13.590;2023-02-12T01:52:45;6.40;99.90
15262;DHT22;7733;51.554;13.590;2023-02-12T01:55:16;6.40;99.90
15262;DHT22;7733;51.554;13.590;2023-02-12T01:57:45;6.40;99.90
15262;DHT22;7733;51.554;13.590;2023-02-12T02:00:15;6.40;99.90
15262;DHT22;7733;51.554;13.590;2023-02-12T02:02:46;6.40;99.90
15262;DHT22;7733;51.554;13.590;2023-02-12T02:05:24;6.40;99.90
15262;DHT22;7733;51.554;13.590;2023-02-12T02:08:17;6.40;99.90
15262;DHT22;7733;51.554;13.590;2023-02-12T02:10:43;6.40;99.90
15262;DHT22;7733;51.554;13.590;2023-02-12T02:13:08;6.40;99.90
15262;DHT22;7733;51.554;13.590;2023-02-12T02:15:57;6.40;99.90
15262;DHT22;7733;51.554;13.590;2023-02-12T02:18:47;6.40;99.90
15262;DHT22;7733;51.554;13.590;2023-02-12T02:21:39;6.30;99.90
15262;DHT22;7733;51.554;13.590;2023-02-12T02:31:14;6.20;99.90
15262;DHT22;7733;51.554;13.590;2023-02-12T02:34:07;6.20;99.90
15262;DHT22;7733;51.554;13.590;2023-02-12T02:36:55;6.20;99.90
15262;DHT22;7733;51.554;13.590;2023-02-12T02:42:36;6.20;99.90
15262;DHT22;7733;51.554;13.590;2023-02-12T02:45:19;6.20;99.90
15262;DHT22;7733;51.554;13.590;2023-02-12T02:50:55;6.20;99.90
15262;DHT22;7733;51.554;13.590;2023-02-12T02:53:36;6.20;99.90
15262;DHT22;7733;51.554;13.590;2023-02-12T02:56:12;6.20;99.90
15262;DHT22;7733;51.554;13.590;2023-02-12T02:58:46;6.20;99.90
15262;DHT22;7733;51.554;13.590;2023-02-12T03:01:41;6.30;99.90
15262;DHT22;7733;51.554;13.590;2023-02-12T03:04:36;6.20;99.90
15262;DHT22;7733;51.554;13.590;2023-02-12T03:07:19;6.20;99.90
15262;DHT22;7733;51.554;13.590;2023-02-12T03:09:56;6.10;99.90
15262;DHT22;7733;51.554;13.590;2023-02-12T03:12:32;6.10;99.90
15262;DHT22;7733;51.554;13.590;2023-02-12T03:15:09;6.10;99.90
15262;DHT22;7733;51.554;13.590;2023-02-12T03:17:45;6.10;99.90
15262;DHT22;7733;51.554;13.590;2023-02-12T03:22:56;6.00;99.90
15262;DHT22;7733;51.554;13.590;2023-02-12T03:25:34;6.10;99.90
15262;DHT22;7733;51.554;13.590;2023-02-12T03:28:17;6.10;99.90
15262;DHT22;7733;51.554;13.590;2023-02-12T03:31:08;6.10;99.90
15262;DHT22;7733;51.554;13.590;2023-02-12T03:36:47;6.00;99.90
15262;DHT22;7733;51.554;13.590;2023-02-12T03:39:34;6.00;99.90
15262;DHT22;7733;51.554;13.590;2023-02-12T03:42:32;6.00;99.90
15262;DHT22;7733;51.554;13.590;2023-02-12T03:45:28;6.10;99.90
15262;DHT22;7733;51.554;13.590;2023-02-12T03:48:35;6.10;99.90
15262;DHT22;7733;51.554;13.590;2023-02-12T03:51:37;6.00;99.90
15262;DHT22;7733;51.554;13.590;2023-02-12T03:54:07;6.00;99.90
15262;DHT22;7733;51.554;13.590;2023-02-12T03:56:46;6.10;99.90
15262;DHT22;7733;51.554;13.590;2023-02-12T03:59:19;6.10;99.90
15262;DHT22;7733;51.554;13.590;2023-02-12T04:01:47;6.10;99.90
15262;DHT22;7733;51.554;13.590;2023-02-12T04:04:16;6.10;99.90
15262;DHT22;7733;51.554;13.590;2023-02-12T04:06:43;6.00;99.90
15262;DHT22;7733;51.554;13.590;2023-02-12T04:09:11;6.10;99.90
15262;DHT22;7733;51.554;13.590;2023-02-12T04:17:50;6.10;99.90
15262;DHT22;7733;51.554;13.590;2023-02-12T04:20:41;6.10;99.90
15262;DHT22;7733;51.554;13.590;2023-02-12T04:26:19;6.10;99.90
15262;DHT22;7733;51.554;13.590;2023-02-12T04:29:16;6.10;99.90
15262;DHT22;7733;51.554;13.590;2023-02-12T04:31:53;6.10;99.90
15262;DHT22;7733;51.554;13.590;2023-02-12T04:34:33;6.00;99.90
15262;DHT22;7733;51.554;13.590;2023-02-12T04:40:05;6.00;99.90
15262;DHT22;7733;51.554;13.590;2023-02-12T04:42:47;6.10;99.90
15262;DHT22;7733;51.554;13.590;2023-02-12T04:45:41;6.10;99.90
15262;DHT22;7733;51.554;13.590;2023-02-12T04:48:07;6.10;99.90
15262;DHT22;7733;51.554;13.590;2023-02-12T04:50:42;6.10;99.90
15262;DHT22;7733;51.554;13.590;2023-02-12T04:53:10;6.10;99.90
15262;DHT22;7733;51.554;13.590;2023-02-12T04:55:36;6.10;99.90
15262;DHT22;7733;51.554;13.590;2023-02-12T04:58:02;6.10;99.90
15262;DHT22;7733;51.554;13.590;2023-02-12T05:00:28;6.20;99.90
15262;DHT22;7733;51.554;13.590;2023-02-12T05:02:54;6.10;99.90
15262;DHT22;7733;51.554;13.590;2023-02-12T05:05:20;6.10;99.90
15262;DHT22;7733;51.554;13.590;2023-02-12T05:07:47;6.10;99.90
15262;DHT22;7733;51.554;13.590;2023-02-12T05:10:13;6.20;99.90
15262;DHT22;7733;51.554;13.590;2023-02-12T05:12:38;6.20;99.90
15262;DHT22;7733;51.554;13.590;2023-02-12T05:15:04;6.20;99.90
15262;DHT22;7733;51.554;13.590;2023-02-12T05:17:30;6.20;99.90
15262;DHT22;7733;51.554;13.590;2023-02-12T05:19:56;6.20;99.90
15262;DHT22;7733;51.554;13.590;2023-02-12T05:22:22;6.20;99.90
15262;DHT22;7733;51.554;13.590;2023-02-12T05:24:48;6.10;99.90
15262;DHT22;7733;51.554;13.590;2023-02-12T05:27:13;6.20;99.90
15262;DHT22;7733;51.554;13.590;2023-02-12T05:29:39;6.20;99.90
15262;DHT22;7733;51.554;13.590;2023-02-12T05:32:05;6.20;99.90
15262;DHT22;7733;51.554;13.590;2023-02-12T05:34:32;6.20;99.90
15262;DHT22;7733;51.554;13.590;2023-02-12T05:36:58;6.20;99.90
15262;DHT22;7733;51.554;13.590;2023-02-12T05:39:25;6.20;99.90
15262;DHT22;7733;51.554;13.590;2023-02-12T05:41:51;6.20;99.90
15262;DHT22;7733;51.554;13.590;2023-02-12T05:44:16;6.20;99.90
15262;DHT22;7733;51.554;13.590;2023-02-12T05:46:42;6.20;99.90
15262;DHT22;7733;51.554;13.590;2023-02-12T05:49:09;6.20;99.90
15262;DHT22;7733;51.554;13.590;2023-02-12T05:51:36;6.20;99.90
15262;DHT22;7733;51.554;13.590;2023-02-12T05:54:04;6.10;99.90
15262;DHT22;7733;51.554;13.590;2023-02-12T05:56:34;6.20;99.90
15262;DHT22;7733;51.554;13.590;2023-02-12T05:59:11;6.10;99.90
15262;DHT22;7733;51.554;13.590;2023-02-12T06:01:41;6.10;99.90
15262;DHT22;7733;51.554;13.590;2023-02-12T06:04:14;6.10;99.90
15262;DHT22;7733;51.554;13.590;2023-02-12T06:06:42;6.10;99.90
15262;DHT22;7733;51.554;13.590;2023-02-12T06:09:10;6.10;99.90
15262;DHT22;7733;51.554;13.590;2023-02-12T06:11:37;6.20;99.90
15262;DHT22;7733;51.554;13.590;2023-02-12T06:14:04;6.20;99.90
15262;DHT22;7733;51.554;13.590;2023-02-12T06:16:32;6.20;99.90
15262;DHT22;7733;51.554;13.590;2023-02-12T06:19:00;6.20;99.90
15262;DHT22;7733;51.554;13.590;2023-02-12T06:21:29;6.20;99.90
15262;DHT22;7733;51.554;13.590;2023-02-12T06:23:56;6.20;99.90
15262;DHT22;7733;51.554;13.590;2023-02-12T06:26:23;6.20;99.90
15262;DHT22;7733;51.554;13.590;2023-02-12T06:28:49;6.20;99.90
15262;DHT22;7733;51.554;13.590;2023-02-12T06:31:24;6.20;99.90
15262;DHT22;7733;51.554;13.590;2023-02-12T06:33:53;6.10;99.90
15262;DHT22;7733;51.554;13.590;2023-02-12T06:36:21;6.10;99.90
15262;DHT22;7733;51.554;13.590;2023-02-12T06:38:48;6.10;99.90
15262;DHT22;7733;51.554;13.590;2023-02-12T06:41:14;6.10;99.90
15262;DHT22;7733;51.554;13.590;2023-02-12T06:43:41;6.20;99.90
15262;DHT22;7733;51.554;13.590;2023-02-12T06:46:07;6.10;99.90
15262;DHT22;7733;51.554;13.590;2023-02-12T06:48:34;6.10;99.90
15262;DHT22;7733;51.554;13.590;2023-02-12T06:51:08;6.20;99.90
15262;DHT22;7733;51.554;13.590;2023-02-12T06:53:36;6.10;99.90
15262;DHT22;7733;51.554;13.590;2023-02-12T06:56:03;6.20;99.90
15262;DHT22;7733;51.554;13.590;2023-02-12T06:58:30;6.20;99.90
15262;DHT22;7733;51.554;13.590;2023-02-12T07:00:56;6.20;99.90
15262;DHT22;7733;51.554;13.590;2023-02-12T07:03:22;6.20;99.90
15262;DHT22;7733;51.554;13.590;2023-02-12T07:05:48;6.20;99.90
15262;DHT22;7733;51.554;13.590;2023-02-12T07:08:14;6.30;99.90
15262;DHT22;7733;51.554;13.590;2023-02-12T07:10:40;6.30;99.90
15262;DHT22;7733;51.554;13.590;2023-02-12T07:13:06;6.20;99.90
15262;DHT22;7733;51.554;13.590;2023-02-12T07:15:31;6.20;99.90
15262;DHT22;7733;51.554;13.590;2023-02-12T07:17:57;6.30;99.90
15262;DHT22;7733;51.554;13.590;2023-02-12T07:20:23;6.30;99.90
15262;DHT22;7733;51.554;13.590;2023-02-12T07:22:48;6.30;99.90
15262;DHT22;7733;51.554;13.590;2023-02-12T07:25:14;6.30;99.90
15262;DHT22;7733;51.554;13.590;2023-02-12T07:27:40;6.40;99.90
15262;DHT22;7733;51.554;13.590;2023-02-12T07:30:06;6.40;99.90
15262;DHT22;7733;51.554;13.590;2023-02-12T07:32:33;6.50;99.90
15262;DHT22;7733;51.554;13.590;2023-02-12T07:34:59;6.50;99.90
15262;DHT22;7733;51.554;13.590;2023-02-12T07:37:25;6.50;99.90
15262;DHT22;7733;51.554;13.590;2023-02-12T07:39:51;6.50;99.90
15262;DHT22;7733;51.554;13.590;2023-02-12T07:42:17;6.50;99.90
15262;DHT22;7733;51.554;13.590;2023-02-12T07:44:43;6.50;99.90
15262;DHT22;7733;51.554;13.590;2023-02-12T07:47:09;6.50;99.90
15262;DHT22;7733;51.554;13.590;2023-02-12T07:49:35;6.50;99.90
15262;DHT22;7733;51.554;13.590;2023-02-12T07:52:01;6.50;99.90
15262;DHT22;7733;51.554;13.590;2023-02-12T07:54:27;6.60;99.90
15262;DHT22;7733;51.554;13.590;2023-02-12T07:56:52;6.60;99.90
15262;DHT22;7733;51.554;13.590;2023-02-12T07:59:19;6.60;99.90
15262;DHT22;7733;51.554;13.590;2023-02-12T08:01:47;6.60;99.90
15262;DHT22;7733;51.554;13.590;2023-02-12T08:04:20;6.60;99.90
15262;DHT22;7733;51.554;13.590;2023-02-12T08:06:50;6.60;99.90
15262;DHT22;7733;51.554;13.590;2023-02-12T08:09:22;6.70;99.90
15262;DHT22;7733;51.554;13.590;2023-02-12T08:11:50;6.60;99.90
15262;DHT22;7733;51.554;13.590;2023-02-12T08:14:18;6.60;99.90
15262;DHT22;7733;51.554;13.590;2023-02-12T08:16:46;6.60;99.90
15262;DHT22;7733;51.554;13.590;2023-02-12T08:19:13;6.70;99.90
15262;DHT22;7733;51.554;13.590;2023-02-12T08:21:39;6.60;99.90
15262;DHT22;7733;51.554;13.590;2023-02-12T08:24:05;6.70;99.90
15262;DHT22;7733;51.554;13.590;2023-02-12T08:26:35;6.70;99.90
15262;DHT22;7733;51.554;13.590;2023-02-12T08:29:04;6.70;99.90
15262;DHT22;7733;51.554;13.590;2023-02-12T08:31:35;6.70;99.90
15262;DHT22;7733;51.554;13.590;2023-02-12T08:34:03;6.70;99.90
15262;DHT22;7733;51.554;13.590;2023-02-12T08:36:38;6.80;99.90
15262;DHT22;7733;51.554;13.590;2023-02-12T08:39:05;6.80;99.90
15262;DHT22;7733;51.554;13.590;2023-02-12T08:41:32;6.70;99.90
15262;DHT22;7733;51.554;13.590;2023-02-12T08:44:02;6.70;99.90
15262;DHT22;7733;51.554;13.590;2023-02-12T08:46:31;6.70;99.90
15262;DHT22;7733;51.554;13.590;2023-02-12T08:49:05;6.70;99.90
15262;DHT22;7733;51.554;13.590;2023-02-12T08:51:36;6.80;99.90
15262;DHT22;7733;51.554;13.590;2023-02-12T08:54:05;6.70;99.90
15262;DHT22;7733;51.554;13.590;2023-02-12T08:56:34;6.70;99.90
15262;DHT22;7733;51.554;13.590;2023-02-12T08:59:02;6.80;99.90
15262;DHT22;7733;51.554;13.590;2023-02-12T09:01:31;6.80;99.90
15262;DHT22;7733;51.554;13.590;2023-02-12T09:04:02;6.80;99.90
15262;DHT22;7733;51.554;13.590;2023-02-12T09:06:31;6.80;99.90
15262;DHT22;7733;51.554;13.590;2023-02-12T09:08:59;6.80;99.90
15262;DHT22;7733;51.554;13.590;2023-02-12T09:11:26;6.80;99.90
15262;DHT22;7733;51.554;13.590;2023-02-12T09:16:32;6.90;99.90
15262;DHT22;7733;51.554;13.590;2023-02-12T09:19:00;6.90;99.90
15262;DHT22;7733;51.554;13.590;2023-02-12T09:21:27;7.00;99.90
15262;DHT22;7733;51.554;13.590;2023-02-12T09:23:53;7.00;99.90
15262;DHT22;7733;51.554;13.590;2023-02-12T09:26:21;7.10;99.90
15262;DHT22;7733;51.554;13.590;2023-02-12T09:28:50;7.10;99.90
15262;DHT22;7733;51.554;13.590;2023-02-12T09:31:23;7.10;99.90
15262;DHT22;7733;51.554;13.590;2023-02-12T09:33:58;7.20;99.90
15262;DHT22;7733;51.554;13.590;2023-02-12T09:36:26;7.20;99.90
15262;DHT22;7733;51.554;13.590;2023-02-12T09:38:52;7.20;99.90
15262;DHT22;7733;51.554;13.590;2023-02-12T09:47:28;7.20;99.90
15262;DHT22;7733;51.554;13.590;2023-02-12T09:53:15;7.10;99.90
15262;DHT22;7733;51.554;13.590;2023-02-12T09:55:44;7.20;99.90
15262;DHT22;7733;51.554;13.590;2023-02-12T10:01:27;7.30;99.90
15262;DHT22;7733;51.554;13.590;2023-02-12T10:03:54;7.30;99.90
15262;DHT22;7733;51.554;13.590;2023-02-12T10:06:42;7.30;99.90
15262;DHT22;7733;51.554;13.590;2023-02-12T10:09:56;7.40;99.90
15262;DHT22;7733;51.554;13.590;2023-02-12T10:12:55;7.30;99.90
15262;DHT22;7733;51.554;13.590;2023-02-12T10:15:46;7.40;99.90
15262;DHT22;7733;51.554;13.590;2023-02-12T10:21:31;7.50;99.90
15262;DHT22;7733;51.554;13.590;2023-02-12T10:27:12;7.40;99.90
15262;DHT22;7733;51.554;13.590;2023-02-12T10:29:41;7.50;99.90
15262;DHT22;7733;51.554;13.590;2023-02-12T10:32:24;7.50;99.90
15262;DHT22;7733;51.554;13.590;2023-02-12T10:34:55;7.60;99.90
15262;DHT22;7733;51.554;13.590;2023-02-12T10:40:26;7.70;99.90
15262;DHT22;7733;51.554;13.590;2023-02-12T10:42:57;7.70;99.90
15262;DHT22;7733;51.554;13.590;2023-02-12T10:48:09;7.70;99.90
15262;DHT22;7733;51.554;13.590;2023-02-12T10:53:37;7.80;99.90
15262;DHT22;7733;51.554;13.590;2023-02-12T10:56:12;7.80;99.90
15262;DHT22;7733;51.554;13.590;2023-02-12T11:01:38;7.90;99.90
15262;DHT22;7733;51.554;13.590;2023-02-12T11:04:35;7.90;99.90
15262;DHT22;7733;51.554;13.590;2023-02-12T11:07:01;8.00;99.90
15262;DHT22;7733;51.554;13.590;2023-02-12T11:09:37;8.00;99.90
15262;DHT22;7733;51.554;13.590;2023-02-12T11:12:35;8.10;99.90
15262;DHT22;7733;51.554;13.590;2023-02-12T11:15:21;8.00;99.90
15262;DHT22;7733;51.554;13.590;2023-02-12T11:18:03;8.00;99.90
15262;DHT22;7733;51.554;13.590;2023-02-12T11:28:56;8.10;99.90
15262;DHT22;7733;51.554;13.590;2023-02-12T11:31:27;8.10;99.90
15262;DHT22;7733;51.554;13.590;2023-02-12T11:34:16;8.00;99.90
15262;DHT22;7733;51.554;13.590;2023-02-12T11:36:52;8.00;99.90
15262;DHT22;7733;51.554;13.590;2023-02-12T11:42:04;8.00;99.90
15262;DHT22;7733;51.554;13.590;2023-02-12T11:44:48;8.00;99.90
15262;DHT22;7733;51.554;13.590;2023-02-12T11:47:20;8.10;99.90
15262;DHT22;7733;51.554;13.590;2023-02-12T11:49:53;8.00;99.90
15262;DHT22;7733;51.554;13.590;2023-02-12T11:52:28;8.10;99.90
15262;DHT22;7733;51.554;13.590;2023-02-12T11:55:05;8.10;99.90
15262;DHT22;7733;51.554;13.590;2023-02-12T11:57:46;8.00;99.90
15262;DHT22;7733;51.554;13.590;2023-02-12T12:00:34;8.00;99.90
15262;DHT22;7733;51.554;13.590;2023-02-12T12:03:20;8.00;99.90
15262;DHT22;7733;51.554;13.590;2023-02-12T12:06:06;8.00;99.90
15262;DHT22;7733;51.554;13.590;2023-02-12T12:08:59;8.10;99.90
15262;DHT22;7733;51.554;13.590;2023-02-12T12:14:55;8.00;99.90
15262;DHT22;7733;51.554;13.590;2023-02-12T12:17:53;8.10;99.90
15262;DHT22;7733;51.554;13.590;2023-02-12T12:20:55;8.00;99.90
15262;DHT22;7733;51.554;13.590;2023-02-12T12:23:38;8.20;99.90
15262;DHT22;7733;51.554;13.590;2023-02-12T12:26:13;8.20;99.90
15262;DHT22;7733;51.554;13.590;2023-02-12T12:31:46;8.10;99.90
15262;DHT22;7733;51.554;13.590;2023-02-12T12:34:20;8.00;99.90
15262;DHT22;7733;51.554;13.590;2023-02-12T12:39:47;8.00;99.90
15262;DHT22;7733;51.554;13.590;2023-02-12T13:06:06;8.20;99.90
15262;DHT22;7733;51.554;13.590;2023-02-12T13:12:34;8.30;99.90
15262;DHT22;7733;51.554;13.590;2023-02-12T13:18:47;8.30;99.90
15262;DHT22;7733;51.554;13.590;2023-02-12T13:22:06;8.30;99.90
15262;DHT22;7733;51.554;13.590;2023-02-12T13:24:51;8.40;99.90
15262;DHT22;7733;51.554;13.590;2023-02-12T13:27:23;8.50;99.90
15262;DHT22;7733;51.554;13.590;2023-02-12T13:30:04;8.60;99.90
15262;DHT22;7733;51.554;13.590;2023-02-12T13:32:42;8.60;99.90
15262;DHT22;7733;51.554;13.590;2023-02-12T13:35:18;8.50;99.90
15262;DHT22;7733;51.554;13.590;2023-02-12T13:37:51;8.50;99.90
15262;DHT22;7733;51.554;13.590;2023-02-12T13:40:26;8.60;99.90
15262;DHT22;7733;51.554;13.590;2023-02-12T13:43:28;8.60;99.90
15262;DHT22;7733;51.554;13.590;2023-02-12T13:49:13;8.50;99.90
15262;DHT22;7733;51.554;13.590;2023-02-12T13:52:11;8.50;99.90
15262;DHT22;7733;51.554;13.590;2023-02-12T14:01:11;8.40;99.90
15262;DHT22;7733;51.554;13.590;2023-02-12T14:03:40;8.40;99.90
15262;DHT22;7733;51.554;13.590;2023-02-12T14:06:17;8.40;99.90
15262;DHT22;7733;51.554;13.590;2023-02-12T14:09:06;8.40;99.90
15262;DHT22;7733;51.554;13.590;2023-02-12T14:11:46;8.40;99.90
15262;DHT22;7733;51.554;13.590;2023-02-12T14:14:25;8.40;99.90
15262;DHT22;7733;51.554;13.590;2023-02-12T14:16:51;8.50;99.90
15262;DHT22;7733;51.554;13.590;2023-02-12T14:19:56;8.60;99.90
15262;DHT22;7733;51.554;13.590;2023-02-12T14:28:19;8.50;99.90
15262;DHT22;7733;51.554;13.590;2023-02-12T14:33:46;8.50;99.90
15262;DHT22;7733;51.554;13.590;2023-02-12T14:36:35;8.50;99.90
15262;DHT22;7733;51.554;13.590;2023-02-12T14:41:47;8.50;99.90
15262;DHT22;7733;51.554;13.590;2023-02-12T14:47:00;8.40;99.90
15262;DHT22;7733;51.554;13.590;2023-02-12T14:52:21;8.50;99.90
15262;DHT22;7733;51.554;13.590;2023-02-12T14:57:25;8.50;99.90
15262;DHT22;7733;51.554;13.590;2023-02-12T15:00:25;8.60;99.90
15262;DHT22;7733;51.554;13.590;2023-02-12T15:02:59;8.60;99.90
15262;DHT22;7733;51.554;13.590;2023-02-12T15:05:32;8.60;99.90
15262;DHT22;7733;51.554;13.590;2023-02-12T15:12:04;8.70;99.90
15262;DHT22;7733;51.554;13.590;2023-02-12T15:14:39;8.70;99.90
15262;DHT22;7733;51.554;13.590;2023-02-12T15:17:17;8.70;99.90
15262;DHT22;7733;51.554;13.590;2023-02-12T15:20:00;8.70;99.90
15262;DHT22;7733;51.554;13.590;2023-02-12T15:22:35;8.70;99.90
15262;DHT22;7733;51.554;13.590;2023-02-12T15:25:14;8.60;99.90
15262;DHT22;7733;51.554;13.590;2023-02-12T15:28:17;8.60;99.90
15262;DHT22;7733;51.554;13.590;2023-02-12T15:30:55;8.50;99.90
15262;DHT22;7733;51.554;13.590;2023-02-12T15:33:29;8.40;99.90
15262;DHT22;7733;51.554;13.590;2023-02-12T15:35:58;8.40;99.90
15262;DHT22;7733;51.554;13.590;2023-02-12T15:38:40;8.50;99.90
15262;DHT22;7733;51.554;13.590;2023-02-12T15:41:07;8.50;99.90
15262;DHT22;7733;51.554;13.590;2023-02-12T15:43:39;8.50;99.90
15262;DHT22;7733;51.554;13.590;2023-02-12T15:46:10;8.40;99.90
15262;DHT22;7733;51.554;13.590;2023-02-12T15:48:40;8.40;99.90
15262;DHT22;7733;51.554;13.590;2023-02-12T15:51:27;8.40;99.90
15262;DHT22;7733;51.554;13.590;2023-02-12T15:54:04;8.40;99.90
15262;DHT22;7733;51.554;13.590;2023-02-12T15:56:31;8.50;99.90
15262;DHT22;7733;51.554;13.590;2023-02-12T15:59:01;8.40;99.90
15262;DHT22;7733;51.554;13.590;2023-02-12T16:01:29;8.30;99.90
15262;DHT22;7733;51.554;13.590;2023-02-12T16:04:03;8.40;99.90
15262;DHT22;7733;51.554;13.590;2023-02-12T16:06:33;8.40;99.90
15262;DHT22;7733;51.554;13.590;2023-02-12T16:09:04;8.40;99.90
15262;DHT22;7733;51.554;13.590;2023-02-12T16:11:52;8.40;99.90
15262;DHT22;7733;51.554;13.590;2023-02-12T16:22:46;8.20;99.90
15262;DHT22;7733;51.554;13.590;2023-02-12T16:28:07;8.10;99.90
15262;DHT22;7733;51.554;13.590;2023-02-12T16:30:43;8.20;99.90
15262;DHT22;7733;51.554;13.590;2023-02-12T16:33:40;8.10;99.90
15262;DHT22;7733;51.554;13.590;2023-02-12T16:38:52;8.00;99.90
15262;DHT22;7733;51.554;13.590;2023-02-12T16:43:46;8.00;99.90
15262;DHT22;7733;51.554;13.590;2023-02-12T16:46:15;8.00;99.90
15262;DHT22;7733;51.554;13.590;2023-02-12T16:48:45;8.00;99.90
15262;DHT22;7733;51.554;13.590;2023-02-12T16:51:31;8.10;99.90
15262;DHT22;7733;51.554;13.590;2023-02-12T16:54:01;8.10;99.90
15262;DHT22;7733;51.554;13.590;2023-02-12T16:56:35;8.00;99.90
15262;DHT22;7733;51.554;13.590;2023-02-12T16:59:03;8.00;99.90
15262;DHT22;7733;51.554;13.590;2023-02-12T17:01:30;8.00;99.90
15262;DHT22;7733;51.554;13.590;2023-02-12T17:04:04;8.10;99.90
15262;DHT22;7733;51.554;13.590;2023-02-12T17:06:32;8.00;99.90
15262;DHT22;7733;51.554;13.590;2023-02-12T17:08:58;8.00;99.90
15262;DHT22;7733;51.554;13.590;2023-02-12T17:11:26;8.00;99.90
15262;DHT22;7733;51.554;13.590;2023-02-12T17:13:54;8.10;99.90
15262;DHT22;7733;51.554;13.590;2023-02-12T17:16:21;8.00;99.90
15262;DHT22;7733;51.554;13.590;2023-02-12T17:18:47;8.00;99.90
15262;DHT22;7733;51.554;13.590;2023-02-12T17:21:33;8.00;99.90
15262;DHT22;7733;51.554;13.590;2023-02-12T17:24:20;8.00;99.90
15262;DHT22;7733;51.554;13.590;2023-02-12T17:26:51;8.10;99.90
15262;DHT22;7733;51.554;13.590;2023-02-12T17:29:20;8.10;99.90
15262;DHT22;7733;51.554;13.590;2023-02-12T17:31:47;8.00;99.90
15262;DHT22;7733;51.554;13.590;2023-02-12T17:34:14;8.00;99.90
15262;DHT22;7733;51.554;13.590;2023-02-12T17:36:41;8.00;99.90
15262;DHT22;7733;51.554;13.590;2023-02-12T17:39:09;8.00;99.90
15262;DHT22;7733;51.554;13.590;2023-02-12T17:41:36;8.00;99.90
15262;DHT22;7733;51.554;13.590;2023-02-12T17:44:02;8.00;99.90
15262;DHT22;7733;51.554;13.590;2023-02-12T17:46:29;7.90;99.90
15262;DHT22;7733;51.554;13.590;2023-02-12T17:48:56;7.90;99.90
15262;DHT22;7733;51.554;13.590;2023-02-12T17:51:21;7.90;99.90
15262;DHT22;7733;51.554;13.590;2023-02-12T17:53:48;7.80;99.90
15262;DHT22;7733;51.554;13.590;2023-02-12T17:56:16;7.80;99.90
15262;DHT22;7733;51.554;13.590;2023-02-12T17:58:44;7.80;99.90
15262;DHT22;7733;51.554;13.590;2023-02-12T18:01:14;7.70;99.90
15262;DHT22;7733;51.554;13.590;2023-02-12T18:03:41;7.70;99.90
15262;DHT22;7733;51.554;13.590;2023-02-12T18:06:08;7.70;99.90
15262;DHT22;7733;51.554;13.590;2023-02-12T18:08:39;7.60;99.90
15262;DHT22;7733;51.554;13.590;2023-02-12T18:11:07;7.50;99.90
15262;DHT22;7733;51.554;13.590;2023-02-12T18:13:35;7.30;99.90
15262;DHT22;7733;51.554;13.590;2023-02-12T18:16:06;7.20;99.90
15262;DHT22;7733;51.554;13.590;2023-02-12T18:18:33;7.10;99.90
15262;DHT22;7733;51.554;13.590;2023-02-12T18:20:59;7.10;99.90
15262;DHT22;7733;51.554;13.590;2023-02-12T18:23:25;7.10;99.90
15262;DHT22;7733;51.554;13.590;2023-02-12T18:25:51;7.00;99.90
15262;DHT22;7733;51.554;13.590;2023-02-12T18:28:17;7.10;99.90
15262;DHT22;7733;51.554;13.590;2023-02-12T18:30:43;7.10;99.90
15262;DHT22;7733;51.554;13.590;2023-02-12T18:33:10;6.90;99.90
15262;DHT22;7733;51.554;13.590;2023-02-12T18:35:36;6.90;99.90
15262;DHT22;7733;51.554;13.590;2023-02-12T18:38:05;6.90;99.90
15262;DHT22;7733;51.554;13.590;2023-02-12T18:40:31;6.90;99.90
15262;DHT22;7733;51.554;13.590;2023-02-12T18:42:57;6.90;99.90
15262;DHT22;7733;51.554;13.590;2023-02-12T18:45:23;6.80;99.90
15262;DHT22;7733;51.554;13.590;2023-02-12T18:47:49;6.90;99.90
15262;DHT22;7733;51.554;13.590;2023-02-12T18:50:14;6.80;99.90
15262;DHT22;7733;51.554;13.590;2023-02-12T18:52:40;6.90;99.90
15262;DHT22;7733;51.554;13.590;2023-02-12T18:55:06;6.90;99.90
15262;DHT22;7733;51.554;13.590;2023-02-12T18:57:32;6.90;99.90
15262;DHT22;7733;51.554;13.590;2023-02-12T18:59:58;6.90;99.90
15262;DHT22;7733;51.554;13.590;2023-02-12T19:02:24;6.90;99.90
15262;DHT22;7733;51.554;13.590;2023-02-12T19:04:50;6.90;99.90
15262;DHT22;7733;51.554;13.590;2023-02-12T19:07:15;6.90;99.90